createdAt,value
2019-05-16T00:00:36.352Z,95.03
2019-05-16T00:03:43.010Z,96.13
2019-05-16T00:06:49.866Z,97.19
2019-05-16T00:09:58.855Z,98.78
2019-05-16T00:13:04.712Z,99.78
2019-05-16T00:16:11.285Z,100.00
2019-05-16T00:19:18.186Z,100.00
2019-05-16T00:22:28.584Z,100.00
2019-05-16T00:25:34.724Z,99.40
2019-05-16T00:28:41.300Z,95.01
2019-05-16T00:31:48.725Z,98.49
2019-05-16T00:34:58.214Z,95.83
2019-05-16T00:38:04.164Z,97.33
2019-05-16T00:41:11.162Z,99.42
2019-05-16T00:44:18.927Z,97.34
2019-05-16T00:47:28.256Z,96.45
2019-05-16T00:50:34.071Z,100.00
2019-05-16T00:53:43.916Z,97.16
2019-05-16T00:56:50.804Z,97.27
2019-05-16T01:00:00.835Z,97.75
2019-05-16T01:03:08.100Z,100.00
2019-05-16T01:06:19.921Z,97.74
2019-05-16T01:09:23.313Z,99.62
2019-05-16T01:12:30.163Z,96.41
2019-05-16T01:15:38.009Z,99.80
2019-05-16T01:18:48.406Z,98.29
2019-05-16T01:21:52.890Z,98.66
2019-05-16T01:24:59.543Z,94.84
2019-05-16T01:28:08.659Z,95.26
2019-05-16T01:31:14.703Z,92.77
2019-05-16T01:34:21.224Z,98.96
2019-05-16T01:37:27.934Z,100.00
2019-05-16T01:40:34.479Z,98.62
2019-05-16T01:43:41.171Z,98.08
2019-05-16T01:46:50.956Z,100.00
2019-05-16T01:49:58.056Z,95.30
2019-05-16T01:53:04.947Z,94.65
2019-05-16T01:56:11.471Z,93.18
2019-05-16T01:59:20.241Z,95.89
2019-05-16T02:02:28.788Z,96.66
2019-05-16T02:05:35.321Z,100.00
2019-05-16T02:08:42.023Z,99.70
2019-05-16T02:11:50.793Z,100.00
2019-05-16T02:14:58.718Z,100.00
2019-05-16T02:18:08.009Z,100.00
2019-05-16T02:21:13.757Z,100.00
2019-05-16T02:24:20.269Z,100.00
2019-05-16T02:27:28.751Z,100.00
2019-05-16T02:30:35.323Z,100.00
2019-05-16T02:33:41.948Z,100.00
2019-05-16T02:37:10.770Z,100.00
2019-05-16T02:40:01.194Z,99.83
2019-05-16T02:43:12.505Z,100.00
2019-05-16T02:46:21.559Z,96.94
2019-05-16T02:49:33.716Z,96.70
2019-05-16T02:52:35.653Z,97.36
2019-05-16T02:55:42.427Z,97.59
2019-05-16T02:58:52.013Z,94.11
2019-05-16T03:02:00.621Z,96.12
2019-05-16T03:05:06.084Z,93.53
2019-05-16T03:08:13.798Z,98.33
2019-05-16T03:11:21.340Z,100.00
2019-05-16T03:14:31.541Z,100.00
2019-05-16T03:17:43.687Z,100.00
2019-05-16T03:20:54.626Z,99.66
2019-05-16T03:24:01.953Z,100.00
2019-05-16T03:27:10.886Z,100.00
2019-05-16T03:30:17.348Z,100.00
2019-05-16T03:33:33.122Z,100.00
2019-05-16T03:36:34.424Z,100.00
2019-05-16T03:39:40.755Z,100.00
2019-05-16T03:42:47.621Z,100.00
2019-05-16T03:45:57.375Z,100.00
2019-05-16T03:49:04.044Z,100.00
2019-05-16T03:52:11.301Z,100.00
2019-05-16T03:55:21.112Z,100.00
2019-05-16T03:58:26.420Z,100.00
2019-05-16T04:01:34.917Z,100.00
2019-05-16T04:04:41.867Z,100.00
2019-05-16T04:07:53.167Z,100.00
2019-05-16T04:11:01.451Z,100.00
2019-05-16T04:14:10.613Z,100.00
2019-05-16T04:17:15.601Z,100.00
2019-05-16T04:20:24.459Z,100.00
2019-05-16T04:23:31.634Z,100.00
2019-05-16T04:26:40.945Z,100.00
2019-05-16T04:29:47.070Z,100.00
2019-05-16T04:32:53.602Z,100.00
2019-05-16T04:36:01.241Z,100.00
2019-05-16T04:39:11.800Z,100.00
2019-05-16T04:42:17.177Z,100.00
2019-05-16T04:45:23.764Z,100.00
2019-05-16T04:48:31.060Z,100.00
2019-05-16T04:51:41.129Z,100.00
2019-05-16T04:54:46.494Z,100.00
2019-05-16T04:57:52.977Z,100.00
2019-05-16T05:01:01.556Z,100.00
2019-05-16T05:04:11.691Z,100.00
2019-05-16T05:07:15.739Z,100.00
2019-05-16T05:10:22.595Z,100.00
2019-05-16T05:13:30.640Z,100.00
2019-05-16T05:16:37.341Z,100.00
2019-05-16T05:19:43.801Z,100.00
2019-05-16T05:22:50.276Z,100.00
2019-05-16T05:25:56.765Z,100.00
2019-05-16T05:29:03.355Z,100.00
2019-05-16T05:32:14.385Z,100.00
2019-05-16T05:35:20.605Z,100.00
2019-05-16T05:38:27.346Z,100.00
2019-05-16T05:41:33.919Z,100.00
2019-05-16T05:44:42.456Z,100.00
2019-05-16T05:47:50.521Z,100.00
2019-05-16T05:50:57.152Z,100.00
2019-05-16T05:54:03.758Z,100.00
2019-05-16T05:57:10.499Z,100.00
2019-05-16T06:00:17.192Z,100.00
2019-05-16T06:03:23.639Z,100.00
2019-05-16T06:06:32.817Z,100.00
2019-05-16T06:09:50.508Z,100.00
2019-05-16T06:12:46.777Z,100.00
2019-05-16T06:15:55.841Z,100.00
2019-05-16T06:19:02.354Z,100.00
2019-05-16T06:22:10.228Z,100.00
2019-05-16T06:25:16.992Z,100.00
2019-05-16T06:28:23.400Z,100.00
2019-05-16T06:31:31.436Z,100.00
2019-05-16T06:34:40.284Z,100.00
2019-05-16T06:37:46.680Z,100.00
2019-05-16T06:40:53.182Z,100.00
2019-05-16T06:44:01.589Z,100.00
2019-05-16T06:47:16.989Z,100.00
2019-05-16T06:50:16.634Z,100.00
2019-05-16T06:53:23.068Z,100.00
2019-05-16T06:56:32.140Z,100.00
2019-05-16T06:59:40.447Z,100.00
2019-05-16T07:02:50.305Z,100.00
2019-05-16T07:05:56.751Z,100.00
2019-05-16T07:09:05.018Z,100.00
2019-05-16T07:12:11.810Z,100.00
2019-05-16T07:15:20.654Z,100.00
2019-05-16T07:18:27.099Z,100.00
2019-05-16T07:21:33.614Z,100.00
2019-05-16T07:24:40.066Z,100.00
2019-05-16T07:27:50.730Z,100.00
2019-05-16T07:30:56.415Z,100.00
2019-05-16T07:34:03.186Z,100.00
2019-05-16T07:37:10.813Z,100.00
2019-05-16T07:40:25.663Z,100.00
2019-05-16T07:43:25.959Z,100.00
2019-05-16T07:46:32.567Z,100.00
2019-05-16T07:49:40.721Z,100.00
2019-05-16T07:52:50.825Z,100.00
2019-05-16T07:55:56.150Z,100.00
2019-05-16T07:59:02.719Z,100.00
2019-05-16T08:02:10.930Z,100.00
2019-05-16T08:05:20.769Z,100.00
2019-05-16T08:08:26.049Z,100.00
2019-05-16T08:11:32.536Z,100.00
2019-05-16T08:14:40.904Z,100.00
2019-05-16T08:17:51.120Z,100.00
2019-05-16T08:21:00.750Z,100.00
2019-05-16T08:24:08.121Z,100.00
2019-05-16T08:27:14.616Z,100.00
2019-05-16T08:30:21.375Z,100.00
2019-05-16T08:33:31.193Z,100.00
2019-05-16T08:36:36.944Z,100.00
2019-05-16T08:39:43.361Z,100.00
2019-05-16T08:42:52.091Z,100.00
2019-05-16T08:46:01.064Z,100.00
2019-05-16T08:49:06.955Z,100.00
2019-05-16T08:52:13.467Z,100.00
2019-05-16T08:55:21.780Z,100.00
2019-05-16T08:58:33.099Z,100.00
2019-05-16T09:01:36.996Z,100.00
2019-05-16T09:04:45.975Z,99.85
2019-05-16T09:11:09.440Z,100.00
2019-05-16T09:14:09.432Z,99.09
2019-05-16T09:17:18.027Z,98.18
2019-05-16T09:18:32.826Z,100.00
2019-05-16T09:20:24.128Z,98.28
2019-05-16T09:23:32.223Z,97.24
2019-05-16T09:26:38.823Z,96.67
2019-05-16T09:29:47.279Z,99.21
2019-05-16T09:32:53.824Z,98.03
2019-05-16T09:36:00.400Z,97.68
2019-05-16T09:39:09.093Z,98.46
2019-05-16T09:42:17.159Z,96.50
2019-05-16T09:45:27.049Z,96.33
2019-05-16T09:48:33.207Z,95.66
2019-05-16T09:51:39.827Z,98.75
2019-05-16T09:54:46.963Z,98.43
2019-05-16T09:57:54.995Z,98.03
2019-05-16T10:01:01.870Z,97.24
2019-05-16T10:04:08.486Z,98.19
2019-05-16T10:07:17.824Z,97.01
2019-05-16T10:10:26.172Z,98.21
2019-05-16T10:13:33.801Z,97.01
2019-05-16T10:16:42.194Z,96.66
2019-05-16T10:19:49.204Z,97.67
2019-05-16T10:22:57.982Z,97.76
2019-05-16T10:26:04.308Z,97.58
2019-05-16T10:29:11.160Z,97.71
2019-05-16T10:32:17.773Z,98.68
2019-05-16T10:35:29.187Z,97.36
2019-05-16T10:38:32.485Z,98.35
2019-05-16T10:41:38.981Z,97.62
2019-05-16T10:44:48.357Z,97.75
2019-05-16T10:47:54.257Z,99.25
2019-05-16T10:51:01.036Z,97.61
2019-05-16T10:54:13.629Z,98.31
2019-05-16T10:57:16.043Z,99.02
2019-05-16T11:00:49.056Z,99.41
2019-05-16T11:03:31.042Z,98.36
2019-05-16T11:06:37.814Z,97.82
2019-05-16T11:09:55.747Z,97.48
2019-05-16T11:12:55.622Z,96.53
2019-05-16T11:16:02.308Z,96.42
2019-05-16T11:19:17.453Z,96.40
2019-05-16T11:22:18.309Z,97.28
2019-05-16T11:25:29.575Z,97.46
2019-05-16T11:28:33.508Z,96.98
2019-05-16T11:31:39.923Z,95.15
2019-05-16T11:34:47.945Z,96.53
2019-05-16T11:37:57.045Z,96.63
2019-05-16T11:41:03.449Z,96.62
2019-05-16T11:44:10.191Z,96.55
2019-05-16T11:47:16.753Z,96.31
2019-05-16T11:50:23.540Z,97.28
2019-05-16T11:53:30.060Z,96.11
2019-05-16T11:56:37.039Z,96.67
2019-05-16T11:59:43.979Z,97.08
2019-05-16T12:02:51.130Z,93.73
2019-05-16T12:05:58.086Z,95.38
2019-05-16T12:09:06.791Z,94.67
2019-05-16T12:12:16.416Z,93.83
2019-05-16T12:15:23.920Z,96.08
2019-05-16T12:18:30.433Z,96.13
2019-05-16T12:21:37.334Z,96.47
2019-05-16T12:24:43.763Z,96.89
2019-05-16T12:27:52.305Z,95.18
2019-05-16T12:30:58.782Z,93.23
2019-05-16T12:34:09.545Z,92.65
2019-05-16T12:37:14.815Z,95.22
2019-05-16T12:40:21.270Z,96.22
2019-05-16T12:43:44.274Z,96.03
2019-05-16T12:46:36.570Z,96.31
2019-05-16T12:49:43.333Z,95.31
2019-05-16T12:52:51.495Z,94.88
2019-05-16T12:55:57.946Z,95.21
2019-05-16T12:59:04.738Z,95.19
2019-05-16T13:02:11.291Z,95.14
2019-05-16T13:05:18.092Z,95.46
2019-05-16T13:08:26.779Z,95.28
2019-05-16T13:11:33.075Z,96.15
2019-05-16T13:14:40.502Z,95.59
2019-05-16T13:17:48.641Z,95.57
2019-05-16T13:20:57.412Z,95.89
2019-05-16T13:24:03.613Z,96.49
2019-05-16T13:27:10.210Z,97.39
2019-05-16T13:30:17.704Z,97.99
2019-05-16T13:33:24.196Z,98.38
2019-05-16T13:36:30.807Z,97.40
2019-05-16T13:39:37.633Z,96.60
2019-05-16T13:42:47.998Z,95.74
2019-05-16T13:45:52.540Z,95.77
2019-05-16T13:48:59.122Z,97.20
2019-05-16T13:52:07.243Z,96.03
2019-05-16T13:55:16.561Z,96.35
2019-05-16T13:58:22.653Z,94.92
2019-05-16T14:01:29.435Z,94.33
2019-05-16T14:04:37.259Z,93.88
2019-05-16T14:07:47.783Z,94.43
2019-05-16T14:10:53.669Z,94.94
2019-05-16T14:14:00.173Z,97.18
2019-05-16T14:17:14.116Z,95.32
2019-05-16T14:20:18.201Z,94.49
2019-05-16T14:23:24.253Z,93.43
2019-05-16T14:26:30.763Z,94.96
2019-05-16T14:29:37.893Z,95.37
2019-05-16T14:32:50.517Z,95.31
2019-05-16T14:35:53.430Z,94.36
2019-05-16T14:38:59.917Z,96.05
2019-05-16T14:42:06.647Z,95.12
2019-05-16T14:45:19.250Z,96.34
2019-05-16T14:48:27.798Z,96.66
2019-05-16T14:51:34.021Z,94.79
2019-05-16T14:54:40.567Z,94.89
2019-05-16T14:57:50.005Z,97.14
2019-05-16T15:00:57.479Z,96.64
2019-05-16T15:04:07.202Z,96.86
2019-05-16T15:07:13.087Z,96.86
2019-05-16T15:10:20.110Z,95.99
2019-05-16T15:13:28.025Z,96.69
2019-05-16T15:16:34.722Z,97.45
2019-05-16T15:19:41.602Z,95.28
2019-05-16T15:22:48.669Z,95.20
2019-05-16T15:25:55.092Z,96.26
2019-05-16T15:29:01.887Z,93.29
2019-05-16T15:32:08.566Z,93.22
2019-05-16T15:35:18.001Z,95.30
2019-05-16T15:38:26.980Z,95.96
2019-05-16T15:41:33.319Z,92.23
2019-05-16T15:44:39.962Z,90.22
2019-05-16T15:47:49.183Z,92.43
2019-05-16T15:50:59.511Z,91.11
2019-05-16T15:54:06.712Z,89.16
2019-05-16T15:57:13.366Z,88.35
2019-05-16T16:00:43.061Z,93.60
2019-05-16T16:03:51.167Z,94.46
2019-05-16T16:06:57.759Z,89.94
2019-05-16T16:10:07.029Z,90.36
2019-05-16T16:13:13.766Z,91.11
2019-05-16T16:16:20.360Z,93.91
2019-05-16T16:19:28.630Z,93.46
2019-05-16T16:22:37.760Z,90.88
2019-05-16T16:25:50.702Z,90.78
2019-05-16T16:28:55.209Z,89.70
2019-05-16T16:32:02.005Z,91.43
2019-05-16T16:35:08.831Z,94.03
2019-05-16T16:38:16.929Z,93.96
2019-05-16T16:41:23.787Z,93.69
2019-05-16T16:44:30.416Z,93.54
2019-05-16T16:47:38.011Z,95.36
2019-05-16T16:50:45.295Z,94.72
2019-05-16T16:53:52.746Z,93.93
2019-05-16T16:56:59.535Z,93.86
2019-05-16T17:00:07.536Z,95.17
2019-05-16T17:03:16.658Z,94.37
2019-05-16T17:06:31.300Z,94.71
2019-05-16T17:09:38.139Z,92.25
2019-05-16T17:12:48.403Z,93.70
2019-05-16T17:15:56.939Z,93.85
2019-05-16T17:19:03.361Z,93.53
2019-05-16T17:22:17.141Z,91.32
2019-05-16T17:25:21.337Z,89.69
2019-05-16T17:28:28.020Z,92.21
2019-05-16T17:31:34.744Z,92.90
2019-05-16T17:34:41.377Z,93.97
2019-05-16T17:37:49.933Z,90.77
2019-05-16T17:40:57.076Z,90.40
2019-05-16T17:44:03.765Z,89.06
2019-05-16T17:47:10.341Z,90.00
2019-05-16T17:50:17.791Z,92.58
2019-05-16T17:53:26.532Z,90.95
2019-05-16T17:56:33.582Z,90.31
2019-05-16T17:59:40.326Z,89.97
2019-05-16T18:02:49.093Z,90.41
2019-05-16T18:05:56.727Z,91.18
2019-05-16T18:09:06.627Z,92.12
2019-05-16T18:12:14.676Z,90.30
2019-05-16T18:15:24.659Z,88.57
2019-05-16T18:18:33.429Z,91.88
2019-05-16T18:21:39.908Z,90.50
2019-05-16T18:24:51.672Z,90.20
2019-05-16T18:28:13.515Z,90.85
2019-05-16T18:31:20.099Z,90.74
2019-05-16T18:34:28.036Z,91.65
2019-05-16T18:37:34.597Z,91.17
2019-05-16T18:40:41.066Z,90.81
2019-05-16T18:43:50.906Z,90.67
2019-05-16T18:47:06.840Z,89.71
2019-05-16T18:50:06.928Z,94.63
2019-05-16T18:53:13.646Z,97.17
2019-05-16T18:56:20.034Z,96.68
2019-05-16T18:59:28.672Z,96.36
2019-05-16T19:02:37.937Z,95.11
2019-05-16T19:05:47.750Z,93.70
2019-05-16T19:08:56.344Z,94.09
2019-05-16T19:12:03.489Z,92.31
2019-05-16T19:15:10.581Z,98.01
2019-05-16T19:18:18.409Z,94.53
2019-05-16T19:21:26.205Z,96.51
2019-05-16T19:24:34.277Z,97.87
2019-05-16T19:27:41.088Z,96.23
2019-05-16T19:30:48.825Z,93.92
2019-05-16T19:33:56.536Z,91.56
2019-05-16T19:37:03.250Z,92.21
2019-05-16T19:40:11.200Z,90.67
2019-05-16T19:43:17.785Z,91.47
2019-05-16T19:46:26.955Z,92.61
2019-05-16T19:49:32.666Z,91.46
2019-05-16T19:52:39.260Z,91.37
2019-05-16T19:55:48.920Z,93.90
2019-05-16T19:58:57.131Z,93.62
2019-05-16T20:02:03.939Z,93.14
2019-05-16T20:05:11.076Z,90.82
2019-05-16T20:08:17.763Z,97.99
2019-05-16T20:11:27.618Z,97.42
2019-05-16T20:14:36.663Z,95.61
2019-05-16T20:17:52.166Z,94.58
2019-05-16T20:20:51.584Z,94.38
2019-05-16T20:24:00.518Z,92.25
2019-05-16T20:27:08.122Z,93.97
2019-05-16T20:30:17.053Z,98.23
2019-05-16T20:33:23.824Z,94.64
2019-05-16T20:36:30.423Z,93.72
2019-05-16T20:39:37.195Z,96.09
2019-05-16T20:42:47.452Z,95.80
2019-05-16T20:45:52.398Z,96.81
2019-05-16T20:48:59.096Z,95.76
2019-05-16T20:52:07.079Z,95.04
2019-05-16T20:55:14.336Z,96.60
2019-05-16T20:58:20.958Z,97.10
2019-05-16T21:01:29.395Z,96.67
2019-05-16T21:04:37.507Z,97.50
2019-05-16T21:07:48.849Z,97.75
2019-05-16T21:10:57.045Z,96.46
2019-05-16T21:14:03.483Z,96.66
2019-05-16T21:17:10.056Z,95.92
2019-05-16T21:20:19.727Z,95.80
2019-05-16T21:23:27.475Z,98.24
2019-05-16T21:26:36.799Z,97.66
2019-05-16T21:29:47.195Z,96.82
2019-05-16T21:32:53.536Z,96.52
2019-05-16T21:36:00.304Z,97.83
2019-05-16T21:39:08.602Z,96.86
2019-05-16T21:42:18.535Z,96.43
2019-05-16T21:45:28.325Z,96.16
2019-05-16T21:48:36.872Z,97.54
2019-05-16T21:51:42.819Z,99.38
2019-05-16T21:54:51.161Z,98.93
2019-05-16T21:57:57.745Z,98.22
2019-05-16T22:01:06.608Z,99.09
2019-05-16T22:04:13.964Z,99.15
2019-05-16T22:07:32.814Z,98.79
2019-05-16T22:10:30.708Z,98.43
2019-05-16T22:13:41.298Z,96.25
2019-05-16T22:16:49.557Z,97.62
2019-05-16T22:19:59.161Z,100.00
2019-05-16T22:23:06.989Z,100.00
2019-05-16T22:26:13.729Z,100.00
2019-05-16T22:29:21.353Z,99.58
2019-05-16T22:32:28.022Z,100.00
2019-05-16T22:35:34.747Z,100.00
2019-05-16T22:38:41.430Z,100.00
2019-05-16T22:41:51.100Z,99.74
2019-05-16T22:44:57.725Z,97.43
2019-05-16T22:48:07.069Z,95.54
2019-05-16T22:51:16.874Z,95.96
2019-05-16T22:54:23.445Z,93.92
2019-05-16T22:57:29.967Z,94.42
2019-05-16T23:00:41.299Z,94.83
2019-05-16T23:03:49.042Z,96.78
2019-05-16T23:06:56.451Z,98.68
2019-05-16T23:10:03.196Z,97.25
2019-05-16T23:13:09.603Z,98.18
2019-05-16T23:16:17.168Z,96.16
2019-05-16T23:19:26.468Z,99.74
2019-05-16T23:22:36.486Z,96.80
2019-05-16T23:39:49.522Z,99.50
2019-05-16T23:42:56.945Z,98.91
2019-05-16T23:46:03.641Z,98.58
2019-05-16T23:49:10.718Z,99.64
2019-05-16T23:52:17.279Z,97.92
2019-05-16T23:55:23.754Z,96.48
2019-05-16T23:58:33.325Z,99.23
